createdAt,value
2018-03-06T00:02:23.997Z,28.27
2018-03-06T00:04:51.038Z,29.12
2018-03-06T00:07:18.728Z,30.27
2018-03-06T00:09:45.691Z,31.23
2018-03-06T00:12:12.736Z,30.77
2018-03-06T00:14:40.397Z,30.92
2018-03-06T00:17:07.410Z,29.33
2018-03-06T00:19:34.386Z,30.92
2018-03-06T00:22:02.018Z,30.58
2018-03-06T00:24:29.793Z,30.95
2018-03-06T00:26:57.579Z,33.08
2018-03-06T00:29:25.280Z,31.70
2018-03-06T00:31:52.334Z,33.22
2018-03-06T00:34:19.297Z,32.50
2018-03-06T00:36:46.328Z,32.20
2018-03-06T00:39:13.296Z,34.70
2018-03-06T00:41:40.304Z,33.78
2018-03-06T00:44:07.394Z,37.38
2018-03-06T00:46:34.523Z,38.00
2018-03-06T00:49:01.486Z,37.97
2018-03-06T00:51:28.380Z,36.67
2018-03-06T00:53:55.467Z,36.70
2018-03-06T00:56:25.356Z,35.85
2018-03-06T00:58:52.666Z,36.30
2018-03-06T01:01:19.829Z,35.85
2018-03-06T01:03:46.856Z,35.70
2018-03-06T01:06:13.768Z,34.45
2018-03-06T01:08:40.883Z,36.78
2018-03-06T01:11:07.818Z,34.90
2018-03-06T01:13:34.889Z,37.30
2018-03-06T01:16:01.847Z,38.00
2018-03-06T01:18:28.921Z,37.78
2018-03-06T01:20:55.851Z,40.05
2018-03-06T01:23:22.878Z,39.10
2018-03-06T01:25:49.872Z,38.70
2018-03-06T01:28:16.873Z,35.55
2018-03-06T01:30:43.938Z,35.63
2018-03-06T01:33:10.895Z,39.47
2018-03-06T01:35:37.879Z,37.33
2018-03-06T01:38:04.884Z,38.70
2018-03-06T01:40:32.002Z,38.88
2018-03-06T01:42:59.007Z,35.70
2018-03-06T01:45:26.148Z,36.75
2018-03-06T01:48:00.461Z,39.30
2018-03-06T01:50:27.579Z,39.03
2018-03-06T01:52:54.671Z,38.28
2018-03-06T01:55:21.685Z,42.38
2018-03-06T01:57:49.490Z,39.25
2018-03-06T02:00:16.707Z,39.35
2018-03-06T02:02:43.807Z,41.05
2018-03-06T02:05:10.791Z,41.13
2018-03-06T02:07:37.738Z,39.92
2018-03-06T02:10:04.850Z,42.03
2018-03-06T02:12:35.971Z,43.65
2018-03-06T02:15:02.987Z,44.80
2018-03-06T02:17:30.038Z,42.47
2018-03-06T02:19:57.052Z,45.05
2018-03-06T02:22:24.075Z,42.08
2018-03-06T02:24:52.008Z,44.58
2018-03-06T02:27:18.920Z,44.55
2018-03-06T02:29:46.575Z,43.38
2018-03-06T02:32:14.392Z,44.40
2018-03-06T02:34:41.442Z,44.53
2018-03-06T02:37:08.497Z,46.33
2018-03-06T02:39:35.503Z,43.00
2018-03-06T02:42:02.470Z,43.75
2018-03-06T02:44:29.507Z,46.72
2018-03-06T02:46:56.516Z,42.60
2018-03-06T02:49:23.538Z,44.35
2018-03-06T02:51:50.623Z,43.87
2018-03-06T02:54:17.691Z,43.42
2018-03-06T02:56:44.667Z,43.90
2018-03-06T02:59:11.634Z,45.15
2018-03-06T03:01:38.667Z,42.85
2018-03-06T03:04:05.605Z,42.15
2018-03-06T03:06:32.710Z,43.85
2018-03-06T03:09:00.439Z,44.65
2018-03-06T03:11:27.557Z,47.42
2018-03-06T03:13:55.301Z,46.28
2018-03-06T03:16:22.407Z,43.58
2018-03-06T03:18:49.379Z,44.05
2018-03-06T03:21:16.439Z,47.03
2018-03-06T03:23:43.497Z,47.20
2018-03-06T03:26:10.523Z,46.60
2018-03-06T03:28:37.608Z,46.78
2018-03-06T03:31:04.600Z,48.92
2018-03-06T03:33:31.684Z,50.78
2018-03-06T03:35:58.858Z,48.63
2018-03-06T03:38:25.991Z,48.40
2018-03-06T03:40:53.018Z,48.65
2018-03-06T03:43:20.115Z,51.50
2018-03-06T03:45:47.124Z,47.90
2018-03-06T03:48:14.083Z,49.22
2018-03-06T03:50:41.740Z,45.28
2018-03-06T03:53:08.691Z,48.03
2018-03-06T03:55:35.669Z,50.30
2018-03-06T03:58:03.359Z,49.00
2018-03-06T04:00:30.439Z,50.67
2018-03-06T04:02:57.388Z,52.00
2018-03-06T04:05:24.358Z,51.47
2018-03-06T04:07:51.415Z,53.60
2018-03-06T04:10:19.222Z,49.45
2018-03-06T04:12:46.275Z,55.85
2018-03-06T04:15:13.338Z,50.72
2018-03-06T04:17:40.339Z,54.08
2018-03-06T04:20:07.340Z,53.92
2018-03-06T04:22:35.175Z,52.58
2018-03-06T04:25:02.305Z,48.63
2018-03-06T04:27:30.061Z,49.13
2018-03-06T04:29:57.206Z,50.85
2018-03-06T04:32:24.324Z,50.17
2018-03-06T04:34:51.294Z,51.28
2018-03-06T04:37:18.285Z,51.17
2018-03-06T04:39:45.339Z,50.38
2018-03-06T04:42:12.284Z,51.88
2018-03-06T04:44:39.283Z,47.05
2018-03-06T04:47:06.283Z,51.78
2018-03-06T04:49:33.343Z,48.80
2018-03-06T04:52:00.390Z,53.13
2018-03-06T04:54:27.390Z,51.28
2018-03-06T04:56:54.381Z,54.47
2018-03-06T04:59:21.434Z,50.35
2018-03-06T05:01:48.374Z,53.60
2018-03-06T05:04:15.415Z,52.35
2018-03-06T05:06:42.326Z,52.55
2018-03-06T05:09:10.103Z,52.22
2018-03-06T05:11:37.866Z,50.12
2018-03-06T05:14:04.944Z,48.58
2018-03-06T05:16:31.977Z,53.05
2018-03-06T05:18:58.934Z,54.70
2018-03-06T05:21:25.989Z,52.78
2018-03-06T05:23:52.985Z,53.13
2018-03-06T05:26:22.183Z,54.72
2018-03-06T05:28:57.229Z,53.22
2018-03-06T05:31:38.215Z,53.97
2018-03-06T05:34:08.864Z,55.50
2018-03-06T05:36:38.416Z,51.65
2018-03-06T05:39:18.477Z,51.88
2018-03-06T05:41:52.485Z,53.42
2018-03-06T05:44:24.687Z,56.55
2018-03-06T05:46:55.841Z,55.50
2018-03-06T05:49:28.414Z,60.05
2018-03-06T05:52:00.504Z,56.90
2018-03-06T05:54:32.418Z,57.03
2018-03-06T05:57:05.142Z,55.70
2018-03-06T05:59:38.525Z,56.28
2018-03-06T06:02:12.298Z,57.15
2018-03-06T06:04:51.741Z,58.22
2018-03-06T06:07:24.678Z,63.25
2018-03-06T06:09:57.512Z,60.60
2018-03-06T06:12:26.946Z,56.05
2018-03-06T06:14:55.893Z,55.45
2018-03-06T06:17:22.819Z,53.05
2018-03-06T06:19:49.700Z,54.78
2018-03-06T06:22:18.669Z,58.03
2018-03-06T06:24:49.025Z,56.65
2018-03-06T06:27:18.303Z,57.92
2018-03-06T06:29:47.427Z,63.47
2018-03-06T06:32:14.303Z,59.65
2018-03-06T06:34:44.194Z,58.28
2018-03-06T06:37:14.214Z,58.80
2018-03-06T06:39:43.368Z,57.78
2018-03-06T06:42:13.209Z,54.25
2018-03-06T06:44:40.072Z,55.58
2018-03-06T06:47:10.149Z,54.80
2018-03-06T06:49:39.710Z,56.60
2018-03-06T06:52:09.502Z,49.55
2018-03-06T06:54:39.124Z,54.75
2018-03-06T06:57:08.220Z,56.55
2018-03-06T06:59:37.999Z,56.17
2018-03-06T07:02:08.416Z,51.90
2018-03-06T07:04:40.869Z,49.90
2018-03-06T07:07:10.353Z,52.70
2018-03-06T07:09:39.737Z,48.92
2018-03-06T07:12:09.135Z,51.03
2018-03-06T07:14:41.902Z,49.75
2018-03-06T07:17:09.011Z,51.25
2018-03-06T07:19:39.137Z,51.42
2018-03-06T07:22:10.281Z,50.70
2018-03-06T07:24:41.920Z,50.75
2018-03-06T07:27:12.073Z,54.08
2018-03-06T07:29:41.780Z,53.55
2018-03-06T07:32:11.355Z,52.62
2018-03-06T07:34:41.031Z,53.40
2018-03-06T07:37:10.731Z,54.05
2018-03-06T07:39:37.595Z,58.33
2018-03-06T07:42:06.620Z,54.22
2018-03-06T07:44:37.308Z,53.17
2018-03-06T07:47:04.196Z,57.40
2018-03-06T07:49:31.147Z,54.13
2018-03-06T07:52:00.230Z,53.08
2018-03-06T07:54:27.112Z,51.35
2018-03-06T07:56:54.788Z,52.55
2018-03-06T07:59:21.712Z,54.60
2018-03-06T08:01:49.323Z,52.65
2018-03-06T08:04:19.565Z,53.35
2018-03-06T08:06:46.668Z,53.87
2018-03-06T08:09:13.590Z,54.45
2018-03-06T08:11:41.223Z,51.25
2018-03-06T08:14:08.157Z,50.75
2018-03-06T08:16:35.081Z,49.65
2018-03-06T08:19:02.052Z,51.53
2018-03-06T08:21:28.935Z,52.05
2018-03-06T08:23:55.974Z,53.73
2018-03-06T08:26:22.831Z,56.50
2018-03-06T08:28:50.424Z,55.30
2018-03-06T08:31:17.359Z,56.70
2018-03-06T08:33:44.284Z,55.20
2018-03-06T08:36:11.165Z,54.27
2018-03-06T08:38:38.020Z,54.90
2018-03-06T08:41:04.958Z,52.40
2018-03-06T08:43:31.819Z,52.80
2018-03-06T08:45:58.748Z,53.93
2018-03-06T08:48:25.671Z,51.83
2018-03-06T08:50:52.549Z,55.83
2018-03-06T08:53:19.484Z,51.77
2018-03-06T08:55:46.351Z,53.87
2018-03-06T08:58:13.211Z,57.53
2018-03-06T09:00:40.151Z,55.50
2018-03-06T09:03:07.104Z,54.40
2018-03-06T09:05:33.975Z,54.90
2018-03-06T09:08:01.639Z,54.93
2018-03-06T09:10:28.584Z,57.63
2018-03-06T09:12:55.534Z,56.50
2018-03-06T09:15:22.460Z,56.97
2018-03-06T09:17:49.391Z,54.70
2018-03-06T09:20:16.334Z,55.23
2018-03-06T09:22:43.224Z,57.87
2018-03-06T09:25:10.186Z,53.63
2018-03-06T09:27:37.076Z,52.57
2018-03-06T09:30:03.984Z,56.63
2018-03-06T09:32:30.943Z,56.57
2018-03-06T09:34:57.837Z,56.40
2018-03-06T09:37:24.705Z,54.73
2018-03-06T09:39:51.633Z,57.13
2018-03-06T09:42:18.523Z,54.73
2018-03-06T09:44:45.468Z,59.60
2018-03-06T09:47:12.342Z,58.70
2018-03-06T09:49:39.375Z,59.60
2018-03-06T09:52:06.247Z,59.70
2018-03-06T09:54:34.613Z,56.37
2018-03-06T09:57:01.596Z,56.67
2018-03-06T09:59:28.536Z,53.47
2018-03-06T10:01:56.169Z,60.60
2018-03-06T10:04:23.096Z,54.33
2018-03-06T10:06:50.040Z,56.40
2018-03-06T10:09:17.570Z,53.70
2018-03-06T10:11:44.538Z,56.23
2018-03-06T10:14:11.427Z,55.83
2018-03-06T10:16:38.374Z,53.80
2018-03-06T10:19:05.322Z,55.67
2018-03-06T10:21:32.196Z,56.30
2018-03-06T10:23:59.120Z,50.47
2018-03-06T10:26:27.266Z,52.93
2018-03-06T10:28:54.361Z,54.80
2018-03-06T10:31:21.935Z,51.00
2018-03-06T10:33:48.921Z,53.37
2018-03-06T10:36:15.887Z,49.80
2018-03-06T10:38:42.819Z,51.50
2018-03-06T10:41:09.742Z,50.93
2018-03-06T10:43:36.667Z,50.73
2018-03-06T10:46:03.583Z,55.17
2018-03-06T10:48:30.518Z,53.57
2018-03-06T10:50:57.451Z,56.17
2018-03-06T10:53:24.380Z,54.60
2018-03-06T10:55:51.305Z,51.97
2018-03-06T10:58:18.180Z,49.23
2018-03-06T11:00:46.987Z,50.50
2018-03-06T11:03:13.925Z,52.77
2018-03-06T11:05:40.878Z,51.90
2018-03-06T11:08:07.790Z,55.60
2018-03-06T11:10:34.670Z,54.00
2018-03-06T11:13:02.354Z,50.60
2018-03-06T11:15:29.970Z,52.50
2018-03-06T11:17:56.916Z,50.67
2018-03-06T11:20:23.784Z,49.70
2018-03-06T11:22:50.710Z,51.10
2018-03-06T11:25:17.635Z,50.50
2018-03-06T11:27:44.559Z,51.90
2018-03-06T11:30:11.422Z,50.77
2018-03-06T11:32:38.455Z,48.43
2018-03-06T11:35:05.314Z,48.03
2018-03-06T11:37:32.207Z,49.30
2018-03-06T11:39:59.143Z,50.80
2018-03-06T11:42:26.025Z,47.63
2018-03-06T11:44:53.703Z,50.40
2018-03-06T11:47:20.619Z,51.17
2018-03-06T11:49:47.499Z,50.03
2018-03-06T11:52:14.431Z,52.03
2018-03-06T11:54:41.300Z,49.33
2018-03-06T11:57:08.162Z,49.43
2018-03-06T11:59:35.199Z,52.00
2018-03-06T12:02:02.081Z,53.10
2018-03-06T12:04:29.015Z,51.87
2018-03-06T12:06:55.950Z,52.27
2018-03-06T12:09:22.802Z,49.13
2018-03-06T12:11:49.723Z,48.90
2018-03-06T12:14:16.584Z,49.07
2018-03-06T12:16:43.519Z,47.17
2018-03-06T12:19:10.455Z,49.30
2018-03-06T12:21:37.327Z,50.87
2018-03-06T12:24:06.195Z,48.20
2018-03-06T12:26:33.196Z,49.67
2018-03-06T12:29:02.472Z,51.20
2018-03-06T12:31:40.708Z,46.73
2018-03-06T12:34:07.593Z,49.70
2018-03-06T12:36:46.438Z,48.47
2018-03-06T12:39:28.115Z,48.57
2018-03-06T12:41:58.273Z,47.80
2018-03-06T12:44:25.263Z,49.00
2018-03-06T12:46:52.122Z,50.07
2018-03-06T12:49:19.063Z,47.40
2018-03-06T12:51:46.029Z,52.97
2018-03-06T12:54:13.003Z,49.33
2018-03-06T12:56:39.941Z,46.40
2018-03-06T12:59:06.880Z,46.57
2018-03-06T13:01:33.827Z,49.90
2018-03-06T13:04:02.100Z,49.97
2018-03-06T13:06:29.843Z,48.30
2018-03-06T13:09:09.477Z,48.70
2018-03-06T13:11:49.358Z,50.63
2018-03-06T13:14:29.876Z,49.47
2018-03-06T13:17:07.186Z,46.63
2018-03-06T13:22:13.486Z,50.20
2018-03-06T13:24:50.239Z,46.93
2018-03-06T13:27:21.290Z,50.70
2018-03-06T13:29:49.311Z,48.33
2018-03-06T13:32:17.707Z,46.70
2018-03-06T13:34:44.683Z,50.17
2018-03-06T13:37:13.169Z,47.80
2018-03-06T13:39:40.208Z,48.20
2018-03-06T13:42:07.156Z,48.40
2018-03-06T13:44:34.791Z,45.97
2018-03-06T13:47:01.731Z,43.87
2018-03-06T13:49:28.653Z,44.40
2018-03-06T13:51:55.584Z,42.90
2018-03-06T13:54:22.510Z,42.47
2018-03-06T13:56:49.438Z,41.87
2018-03-06T13:59:16.295Z,40.87
2018-03-06T14:01:43.245Z,41.43
2018-03-06T14:04:10.112Z,42.73
2018-03-06T14:06:37.007Z,42.70
2018-03-06T14:09:04.707Z,41.50
2018-03-06T14:11:31.576Z,42.67
2018-03-06T14:13:58.589Z,40.43
2018-03-06T14:16:25.520Z,42.30
2018-03-06T14:18:53.165Z,38.50
2018-03-06T14:21:20.103Z,41.20
2018-03-06T14:23:46.956Z,38.37
2018-03-06T14:26:13.879Z,40.37
2018-03-06T14:28:40.812Z,38.93
2018-03-06T14:31:07.760Z,42.80
2018-03-06T14:33:34.636Z,43.73
2018-03-06T14:36:01.585Z,62.67
2018-03-06T14:38:28.456Z,47.03
2018-03-06T14:40:55.384Z,44.80
2018-03-06T14:43:22.359Z,41.77
2018-03-06T14:45:49.231Z,40.30
2018-03-06T14:48:16.172Z,43.40
2018-03-06T14:50:43.101Z,42.00
2018-03-06T14:53:09.975Z,40.90
2018-03-06T14:55:36.854Z,40.20
2018-03-06T14:58:03.795Z,40.70
2018-03-06T15:00:30.737Z,40.93
2018-03-06T15:02:57.715Z,41.50
2018-03-06T15:05:24.668Z,41.57
2018-03-06T15:07:51.587Z,42.10
2018-03-06T15:10:19.212Z,39.70
2018-03-06T15:12:46.147Z,39.80
2018-03-06T15:15:13.015Z,37.80
2018-03-06T15:17:39.952Z,40.83
2018-03-06T15:20:07.300Z,38.50
2018-03-06T15:22:34.244Z,40.40
2018-03-06T15:25:01.167Z,37.23
2018-03-06T15:27:28.115Z,43.40
2018-03-06T15:29:54.983Z,42.07
2018-03-06T15:32:21.914Z,41.60
2018-03-06T15:34:48.872Z,39.23
2018-03-06T15:37:15.734Z,40.13
2018-03-06T15:39:42.651Z,41.10
2018-03-06T15:42:09.580Z,43.33
2018-03-06T15:44:36.512Z,43.50
2018-03-06T15:47:04.111Z,41.60
2018-03-06T15:49:30.976Z,41.13
2018-03-06T15:51:57.930Z,41.07
2018-03-06T15:57:07.068Z,41.03
2018-03-06T15:59:34.006Z,42.80
2018-03-06T16:02:01.028Z,41.67
2018-03-06T16:04:31.198Z,40.00
2018-03-06T16:06:58.181Z,40.00
2018-03-06T16:09:35.604Z,39.53
2018-03-06T16:12:16.357Z,39.03
2018-03-06T16:14:51.424Z,39.73
2018-03-06T16:17:24.555Z,37.20
2018-03-06T16:19:57.538Z,34.20
2018-03-06T16:22:28.837Z,39.23
2018-03-06T16:24:55.763Z,40.00
2018-03-06T16:27:36.592Z,40.27
2018-03-06T16:30:04.401Z,43.23
2018-03-06T16:32:39.907Z,40.37
2018-03-06T16:35:06.858Z,39.70
2018-03-06T16:37:33.807Z,40.53
2018-03-06T16:40:00.733Z,42.70
2018-03-06T16:42:27.666Z,43.03
2018-03-06T16:44:54.639Z,42.17
2018-03-06T16:47:21.600Z,39.27
2018-03-06T16:49:48.475Z,40.80
2018-03-06T16:52:15.332Z,44.10
2018-03-06T16:54:42.262Z,41.60
2018-03-06T16:57:09.134Z,41.23
2018-03-06T16:59:36.068Z,42.67
2018-03-06T17:02:02.936Z,41.77
2018-03-06T17:04:29.866Z,43.10
2018-03-06T17:06:56.725Z,39.87
2018-03-06T17:09:23.639Z,41.23
2018-03-06T17:11:50.571Z,43.90
2018-03-06T17:14:17.508Z,43.17
2018-03-06T17:16:44.508Z,42.87
2018-03-06T17:19:12.250Z,46.63
2018-03-06T17:21:39.370Z,42.40
2018-03-06T17:24:14.391Z,44.80
2018-03-06T17:26:47.262Z,41.07
2018-03-06T17:29:23.316Z,39.13
2018-03-06T17:31:56.693Z,40.60
2018-03-06T17:34:33.310Z,43.10
2018-03-06T17:37:06.176Z,40.27
2018-03-06T17:39:40.971Z,40.20
2018-03-06T17:42:13.946Z,41.93
2018-03-06T17:44:55.129Z,42.80
2018-03-06T17:47:35.462Z,42.43
2018-03-06T17:50:10.308Z,38.27
2018-03-06T17:52:56.720Z,40.80
2018-03-06T17:55:35.878Z,40.33
2018-03-06T18:01:05.277Z,40.80
2018-03-06T18:03:33.223Z,40.77
2018-03-06T18:06:00.829Z,43.90
2018-03-06T18:08:27.800Z,40.27
2018-03-06T18:10:56.679Z,44.00
2018-03-06T18:13:23.555Z,45.33
2018-03-06T18:15:50.492Z,44.50
2018-03-06T18:18:17.422Z,47.20
2018-03-06T18:20:44.379Z,45.80
2018-03-06T18:23:11.252Z,44.50
2018-03-06T18:25:39.114Z,42.33
2018-03-06T18:28:06.735Z,46.87
2018-03-06T18:30:33.616Z,44.60
2018-03-06T18:33:01.288Z,45.97
2018-03-06T18:35:28.972Z,44.90
2018-03-06T18:37:55.876Z,46.23
2018-03-06T18:40:22.802Z,45.30
2018-03-06T18:42:49.734Z,44.00
2018-03-06T18:45:16.599Z,44.27
2018-03-06T18:47:43.606Z,43.60
2018-03-06T18:50:22.423Z,41.00
2018-03-06T18:52:49.376Z,38.87
2018-03-06T18:55:16.259Z,40.77
2018-03-06T18:57:43.199Z,44.08
2018-03-06T19:00:29.764Z,42.33
2018-03-06T19:03:09.933Z,39.93
2018-03-06T19:05:49.055Z,42.08
2018-03-06T19:11:02.812Z,46.70
2018-03-06T19:13:29.792Z,46.63
2018-03-06T19:16:03.363Z,45.30
2018-03-06T19:18:30.289Z,46.60
2018-03-06T19:20:57.975Z,44.73
2018-03-06T19:23:24.845Z,46.70
2018-03-06T19:26:00.740Z,46.40
2018-03-06T19:28:41.559Z,47.33
2018-03-06T19:31:26.213Z,51.00
2018-03-06T19:34:08.826Z,50.12
2018-03-06T19:36:51.764Z,49.30
2018-03-06T19:39:33.498Z,51.47
2018-03-06T19:42:01.249Z,48.93
2018-03-06T19:44:28.124Z,48.25
2018-03-06T19:47:00.540Z,51.10
2018-03-06T19:49:35.958Z,50.67
2018-03-06T19:52:11.889Z,52.27
2018-03-06T19:54:38.776Z,50.38
2018-03-06T19:57:17.606Z,50.35
2018-03-06T19:59:44.499Z,50.27
2018-03-06T20:02:14.117Z,52.60
2018-03-06T20:04:41.744Z,51.72
2018-03-06T20:07:08.623Z,52.03
2018-03-06T20:09:35.628Z,51.63
2018-03-06T20:12:02.518Z,50.50
2018-03-06T20:14:36.295Z,52.40
2018-03-06T20:17:03.320Z,52.40
2018-03-06T20:19:36.088Z,54.97
2018-03-06T20:22:18.088Z,53.22
2018-03-06T20:25:02.865Z,49.67
2018-03-06T20:27:43.880Z,53.00
2018-03-06T20:30:29.168Z,54.63
2018-03-06T20:33:12.637Z,51.67
2018-03-06T20:35:40.436Z,53.60
2018-03-06T20:38:07.484Z,53.65
2018-03-06T20:40:34.443Z,54.20
2018-03-06T20:43:01.418Z,56.22
2018-03-06T20:45:43.918Z,54.17
2018-03-06T20:48:11.616Z,52.75
2018-03-06T20:50:38.505Z,50.30
2018-03-06T20:53:11.447Z,52.45
2018-03-06T20:55:38.433Z,47.40
2018-03-06T20:58:05.393Z,48.60
2018-03-06T21:00:32.273Z,54.67
2018-03-06T21:02:59.247Z,51.97
2018-03-06T21:05:31.686Z,50.25
2018-03-06T21:07:59.209Z,51.33
2018-03-06T21:10:41.059Z,51.93
2018-03-06T21:13:22.998Z,49.00
2018-03-06T21:15:50.701Z,50.90
2018-03-06T21:18:18.392Z,52.30
2018-03-06T21:20:45.375Z,54.40
2018-03-06T21:23:25.691Z,48.60
2018-03-06T21:26:06.418Z,47.58
2018-03-06T21:28:48.448Z,47.15
2018-03-06T21:31:30.359Z,46.13
2018-03-06T21:33:58.841Z,46.53
2018-03-06T21:36:25.769Z,46.72
2018-03-06T21:38:53.445Z,46.07
2018-03-06T21:41:21.123Z,44.70
2018-03-06T21:43:48.085Z,47.10
2018-03-06T21:46:15.070Z,45.23
2018-03-06T21:48:41.985Z,44.40
2018-03-06T21:51:08.931Z,46.17
2018-03-06T21:53:35.812Z,48.20
2018-03-06T21:56:02.767Z,46.10
2018-03-06T21:58:29.639Z,43.30
2018-03-06T22:00:56.513Z,43.10
2018-03-06T22:03:23.539Z,44.00
2018-03-06T22:05:50.423Z,43.58
2018-03-06T22:08:17.304Z,43.15
2018-03-06T22:10:44.987Z,41.10
2018-03-06T22:13:11.916Z,45.43
2018-03-06T22:15:39.599Z,43.83
2018-03-06T22:18:06.562Z,43.65
2018-03-06T22:20:33.454Z,44.63
2018-03-06T22:23:00.337Z,45.80
2018-03-06T22:25:27.297Z,48.40
2018-03-06T22:27:54.180Z,45.20
2018-03-06T22:30:21.055Z,42.88
2018-03-06T22:32:48.735Z,42.78
2018-03-06T22:35:15.668Z,43.17
2018-03-06T22:37:42.604Z,46.40
2018-03-06T22:40:09.476Z,41.70
2018-03-06T22:42:36.415Z,41.58
2018-03-06T22:45:03.395Z,39.03
2018-03-06T22:47:30.255Z,39.77
2018-03-06T22:49:57.216Z,42.67
2018-03-06T22:52:24.141Z,41.55
2018-03-06T22:54:51.098Z,44.80
2018-03-06T22:57:19.114Z,41.43
2018-03-06T22:59:46.004Z,43.53
2018-03-06T23:02:13.047Z,40.40
2018-03-06T23:04:39.917Z,40.87
2018-03-06T23:07:06.856Z,38.60
2018-03-06T23:09:33.770Z,42.53
2018-03-06T23:12:00.655Z,41.57
2018-03-06T23:14:27.596Z,39.80
2018-03-06T23:16:54.476Z,41.78
2018-03-06T23:19:21.336Z,42.30
2018-03-06T23:21:48.283Z,40.22
2018-03-06T23:24:15.146Z,40.63
2018-03-06T23:26:42.063Z,41.53
2018-03-06T23:29:09.008Z,43.87
2018-03-06T23:31:35.887Z,39.83
2018-03-06T23:34:08.650Z,42.17
2018-03-06T23:36:35.516Z,41.93
2018-03-06T23:39:02.444Z,40.73
2018-03-06T23:41:29.384Z,43.13
2018-03-06T23:43:56.268Z,40.27
2018-03-06T23:46:23.134Z,41.47
2018-03-06T23:48:52.055Z,40.93
2018-03-06T23:51:20.748Z,40.60
2018-03-06T23:53:49.249Z,41.93
2018-03-06T23:56:16.340Z,39.93
2018-03-06T23:58:44.656Z,40.28
